Aérodrome :
LOGIN :

S'inscrire | Disclaimer

   EN    FR    IT 

 










Légende :    VFR   VFR Marginal   IFR   IFR Intensif   IFR Très Intensif
Visi : 
Plafond : 
>= 8 km
>= 3000ft
5 à 8 km
1000 à 3000 ft
1500m à 5 km
500 à 1000 ft
800 à 1500m
200 à 500 ft
< 800m
< 200 ft
Symboles :   Orages  Brouillard  Fortes neiges  Fortes précipitations  Vent > 20 kt
SIGMETs :   Divers  Orages  Givrage  Turbulence  Onde Orograph.  Cendres Volcan.






- Altitude de l'aérodrome : 249 ft


EGOS - RAF Shawbury

DERNIER METAR :
  • 010920Z 08008KT 0300 FG VV/// 03/03 Q1033 BECMG 3000 BR BKN004 RMK RED BECMG YLO2

METARs EXPIRÉS :
  • 010850Z 08004KT 0100 FG VV/// 02/02 Q1033 BECMG 2000 BR BKN003 RMK RED BECMG YLO2
  • 010820Z 09003KT 0100 FG VV/// 01/01 Q1033 BECMG 2000 BR BKN003 RMK RED BECMG YLO2
  • 010750Z 07007KT 0500 FG VV/// 01/01 Q1033 RMK RED
  • 010650Z AUTO 04002KT 0500 SCT003/// M00/M00 Q1032

TAF AMD TAF EGOS
Valide du 01 à 09h jusqu'au 01 à 18h UTC


010842Z 0109/0118 08005KT 0200 FG VV///
BECMG 0109/0112 4000 BR BKN005
BECMG 0112/0114 9999 NSW BKN010
BECMG 0114/0117 BKN018



MET'MAP, la Météo Aéronautique d'un coup d'oeil ! - Copyright ORBIFLY Décembre 2007 - Disclaimer

ORBIFLY MET'MAP TEAM :

Programmation & Développement : Alexandra Zaïnal
Sur une idée originale de : Baudouin d'Aumeries
Assistance à la programmation : Marc-Olivier Méhu
Soutien technique & logistique : Manuel Goepfert

Contact : metmap@orbifly.com




SOURCES & CREDITS :

   NOAA